Time;durP1;ratioP1;P1;durP2;ratioP2;P2;SDS_P1;SDS_P2;PMS_P1;PMS_P2;Temp;Humidity;BMP_temperature;BMP_pressure;BME280_temperature;BME280_humidity;BME280_pressure;Samples;Min_cycle;Max_cycle;Signal;HPM_P1;HPM_P2
2021/08/07 00:02:58;;;;;;;10.53;6.05;;;;;;;13.53;78.56;99270.77;1980176;87;21152;-74
2021/08/07 00:05:59;;;;;;;13.55;5.72;;;;;;;13.50;78.54;99274.36;1968560;87;21116;-75
2021/08/07 00:09:01;;;;;;;16.35;5.78;;;;;;;13.50;78.58;99271.70;1972750;88;21136;-73
2021/08/07 00:12:03;;;;;;;16.25;6.00;;;;;;;13.51;78.54;99266.66;1962464;88;22894;-74
2021/08/07 00:15:07;;;;;;;7.75;5.25;;;;;;;13.48;78.41;99263.08;1984843;87;21113;-77
2021/08/07 00:18:08;;;;;;;11.00;6.40;;;;;;;13.42;78.37;99258.06;2017963;86;21644;-72
2021/08/07 00:21:10;;;;;;;12.05;6.00;;;;;;;13.41;78.49;99263.91;2016505;86;21098;-74
2021/08/07 00:24:11;;;;;;;12.93;5.67;;;;;;;13.41;78.50;99261.77;2018095;85;21112;-76
2021/08/07 00:27:12;;;;;;;12.30;5.30;;;;;;;13.39;78.38;99262.47;2022197;84;21054;-74
2021/08/07 00:30:15;;;;;;;15.28;6.50;;;;;;;13.36;78.35;99263.70;2016033;85;21103;-76
2021/08/07 00:33:16;;;;;;;13.40;5.83;;;;;;;13.32;78.14;99261.16;2016361;85;21070;-71
2021/08/07 00:36:19;;;;;;;13.93;6.72;;;;;;;13.28;78.08;99259.91;2009826;85;21132;-74
2021/08/07 00:39:20;;;;;;;10.90;5.65;;;;;;;13.23;78.02;99259.67;1995323;85;21102;-74
2021/08/07 00:42:23;;;;;;;13.05;6.03;;;;;;;13.21;78.22;99264.40;2010563;87;21140;-74
2021/08/07 00:45:25;;;;;;;12.35;5.45;;;;;;;13.20;78.39;99260.08;1992296;86;21085;-77
2021/08/07 00:48:27;;;;;;;11.68;5.17;;;;;;;13.18;78.20;99258.16;2018124;85;21172;-83
2021/08/07 00:51:32;;;;;;;11.45;5.58;;;;;;;13.17;78.41;99263.16;2011119;86;21134;-75
2021/08/07 00:54:37;;;;;;;12.45;5.78;;;;;;;13.14;78.23;99259.57;2009099;85;21171;-71
2021/08/07 00:57:41;;;;;;;10.85;5.50;;;;;;;13.09;78.36;99260.20;1995311;86;21102;-74
2021/08/07 01:00:44;;;;;;;14.68;5.40;;;;;;;13.07;78.39;99259.58;2021124;84;21073;-75
2021/08/07 01:03:49;;;;;;;11.60;5.37;;;;;;;13.06;78.38;99267.75;2024253;84;22759;-74
2021/08/07 01:06:57;;;;;;;12.82;5.70;;;;;;;13.05;78.33;99266.94;2018961;84;22179;-73
2021/08/07 01:10:29;;;;;;;15.28;5.70;;;;;;;13.01;78.32;99265.20;2017159;85;21105;-80
2021/08/07 01:13:47;;;;;;;17.27;7.08;;;;;;;12.99;78.41;99269.91;2007537;85;21138;-76
2021/08/07 01:16:53;;;;;;;12.23;6.22;;;;;;;12.99;78.63;99268.58;2016719;84;21161;-74
2021/08/07 01:20:22;;;;;;;15.38;6.25;;;;;;;12.99;78.75;99275.23;2029043;85;21141;-79
2021/08/07 01:23:34;;;;;;;13.93;5.55;;;;;;;13.01;78.99;99275.04;2007361;86;21089;-80
2021/08/07 01:27:03;;;;;;;12.43;6.15;;;;;;;13.04;79.23;99272.48;1997325;85;21081;-73
2021/08/07 01:30:10;;;;;;;10.05;5.50;;;;;;;13.09;79.39;99278.84;2017198;86;21710;-75
2021/08/07 01:33:13;;;;;;;13.20;6.08;;;;;;;13.13;79.54;99280.06;2015640;85;21141;-76
2021/08/07 01:36:17;;;;;;;10.08;6.15;;;;;;;13.18;79.62;99280.80;2032086;84;21177;-85
2021/08/07 01:39:21;;;;;;;11.22;6.37;;;;;;;13.20;79.72;99276.87;1992013;86;22329;-72
2021/08/07 01:42:26;;;;;;;7.42;5.97;;;;;;;13.28;79.79;99278.55;2020107;84;21089;-77
2021/08/07 01:45:28;;;;;;;9.38;6.17;;;;;;;13.35;79.94;99282.05;2024638;84;22220;-72
2021/08/07 01:48:40;;;;;;;10.48;6.53;;;;;;;13.40;80.01;99282.27;2020820;84;21200;-79
2021/08/07 01:52:06;;;;;;;10.00;6.20;;;;;;;13.42;80.07;99286.05;2005629;86;21200;-76
2021/08/07 01:55:15;;;;;;;7.72;6.35;;;;;;;13.45;80.13;99284.30;2004838;86;21169;-73
2021/08/07 01:58:28;;;;;;;8.83;6.00;;;;;;;13.49;80.18;99288.70;2008964;85;21081;-74
2021/08/07 02:01:32;;;;;;;11.80;6.83;;;;;;;13.49;80.22;99282.88;1994935;86;21148;-76
2021/08/07 02:04:35;;;;;;;8.85;5.90;;;;;;;13.50;80.21;99281.84;2006716;86;21094;-85
2021/08/07 02:07:39;;;;;;;10.58;6.47;;;;;;;13.53;80.29;99281.94;1999576;86;21089;-83
2021/08/07 02:10:47;;;;;;;9.18;6.25;;;;;;;13.54;80.34;99280.39;2030011;85;21485;-78
2021/08/07 02:13:49;;;;;;;9.13;6.20;;;;;;;13.57;80.41;99280.00;2002467;85;21046;-79
2021/08/07 02:16:55;;;;;;;9.68;6.47;;;;;;;13.61;80.39;99279.06;2025208;85;21122;-72
2021/08/07 02:19:58;;;;;;;8.00;5.47;;;;;;;13.62;80.34;99280.70;2016873;84;21096;-75
2021/08/07 02:23:00;;;;;;;12.78;5.95;;;;;;;13.62;80.38;99274.03;2010219;86;21568;-77
2021/08/07 02:26:06;;;;;;;6.80;5.67;;;;;;;13.63;80.30;99275.69;2010663;85;21117;-75
2021/08/07 02:29:09;;;;;;;6.58;5.47;;;;;;;13.62;80.18;99274.84;2003180;85;21138;-75
2021/08/07 02:32:14;;;;;;;8.73;6.03;;;;;;;13.60;80.03;99279.59;2014468;84;21172;-75
2021/08/07 02:35:18;;;;;;;8.75;6.33;;;;;;;13.59;80.12;99279.78;2005595;85;21120;-72
2021/08/07 02:38:23;;;;;;;15.20;7.65;;;;;;;13.59;80.16;99279.78;1999085;85;21136;-72
2021/08/07 02:41:27;;;;;;;11.00;6.60;;;;;;;13.56;80.05;99281.53;1981527;87;21598;-78
2021/08/07 02:44:30;;;;;;;11.73;6.10;;;;;;;13.54;80.06;99295.56;2000593;86;21210;-72
2021/08/07 02:47:34;;;;;;;9.38;5.58;;;;;;;13.50;79.98;99283.69;2005759;85;21486;-74
2021/08/07 02:50:40;;;;;;;7.17;5.45;;;;;;;13.41;79.87;99289.22;2009106;85;21683;-71
2021/08/07 02:53:44;;;;;;;7.60;5.80;;;;;;;13.36;79.92;99293.53;1971555;86;21126;-79
2021/08/07 02:56:47;;;;;;;10.53;5.95;;;;;;;13.33;79.78;99293.94;1951483;89;21143;-75
2021/08/07 02:59:49;;;;;;;10.55;5.92;;;;;;;13.24;79.83;99295.44;1976810;87;21152;-74
2021/08/07 03:02:51;;;;;;;7.37;5.03;;;;;;;13.21;79.87;99289.70;1918585;90;21204;-73
2021/08/07 03:05:53;;;;;;;7.55;4.75;;;;;;;13.19;79.80;99298.41;1936700;89;21140;-88
2021/08/07 03:08:55;;;;;;;8.65;5.15;;;;;;;13.15;79.71;99302.00;2007827;86;21196;-79
2021/08/07 03:11:58;;;;;;;7.30;5.15;;;;;;;13.13;79.71;99301.89;2016910;85;21567;-73
2021/08/07 03:15:00;;;;;;;7.03;5.80;;;;;;;13.09;79.67;99301.97;2017145;85;21188;-72
2021/08/07 03:18:03;;;;;;;8.33;5.10;;;;;;;13.07;79.99;99300.04;2011795;86;21073;-80
2021/08/07 03:21:06;;;;;;;7.87;5.17;;;;;;;13.06;79.84;99295.72;2008621;85;21050;-88
2021/08/07 03:24:09;;;;;;;10.32;6.05;;;;;;;13.00;79.72;99294.16;2014452;85;21094;-88
2021/08/07 03:27:13;;;;;;;6.67;5.05;;;;;;;12.96;79.72;99295.61;2005914;85;21759;-72
2021/08/07 03:30:16;;;;;;;5.70;4.58;;;;;;;12.98;79.78;99306.88;2011654;85;21125;-78
2021/08/07 03:33:18;;;;;;;12.73;5.60;;;;;;;12.95;79.64;99312.62;2008785;86;21715;-73
2021/08/07 03:36:19;;;;;;;7.47;5.28;;;;;;;12.96;79.69;99312.91;2004285;86;21082;-72
2021/08/07 03:39:23;;;;;;;6.50;5.60;;;;;;;12.96;79.71;99308.92;2004427;86;21101;-81
2021/08/07 03:42:25;;;;;;;7.95;5.40;;;;;;;12.99;80.04;99311.70;2009642;85;21140;-78
2021/08/07 03:45:27;;;;;;;6.25;5.12;;;;;;;13.03;80.06;99309.44;1988729;86;21113;-73
2021/08/07 03:48:30;;;;;;;8.93;5.30;;;;;;;13.06;79.84;99313.03;2005212;86;21054;-83
2021/08/07 03:51:32;;;;;;;6.12;4.47;;;;;;;13.04;79.73;99315.91;2007457;86;21141;-77
2021/08/07 03:54:35;;;;;;;6.45;5.53;;;;;;;13.04;79.78;99315.09;2001644;86;21152;-76
2021/08/07 03:57:57;;;;;;;6.47;4.80;;;;;;;13.06;79.87;99315.17;1993775;85;21552;-73
2021/08/07 04:01:16;;;;;;;5.33;4.70;;;;;;;13.12;79.98;99313.55;1942281;89;21114;-75
2021/08/07 04:04:18;;;;;;;7.03;4.40;;;;;;;13.27;79.91;99306.75;1994066;86;21086;-72
2021/08/07 04:07:20;;;;;;;5.53;4.87;;;;;;;13.50;79.98;99321.00;2006673;86;22934;-73
2021/08/07 04:10:23;;;;;;;5.30;4.80;;;;;;;13.78;80.02;99319.45;1979609;87;21136;-74
2021/08/07 04:13:25;;;;;;;7.22;4.87;;;;;;;14.06;79.96;99323.20;2011375;86;21121;-73
2021/08/07 04:16:27;;;;;;;5.75;4.60;;;;;;;14.28;79.76;99313.91;2000764;86;21152;-77
2021/08/07 04:19:29;;;;;;;7.55;4.53;;;;;;;14.59;79.71;99311.05;2011229;87;21799;-73
2021/08/07 04:22:39;;;;;;;7.70;4.12;;;;;;;14.80;79.34;99316.05;1998263;86;21678;-75
2021/08/07 04:25:41;;;;;;;4.50;4.10;;;;;;;15.14;79.29;99318.02;2003381;85;22129;-74
2021/08/07 04:28:43;;;;;;;6.03;4.25;;;;;;;15.48;79.08;99319.92;2009167;86;21589;-88
2021/08/07 04:31:44;;;;;;;4.62;4.22;;;;;;;15.80;78.56;99322.59;1976971;86;21113;-84
2021/08/07 04:34:46;;;;;;;5.47;3.77;;;;;;;16.12;78.14;99323.28;1942208;89;21681;-73
2021/08/07 04:37:56;;;;;;;5.45;4.05;;;;;;;16.46;78.20;99325.88;1933743;89;21112;-74
2021/08/07 04:41:00;;;;;;;7.83;4.42;;;;;;;16.87;77.71;99320.89;1981664;87;21184;-73
2021/08/07 04:44:03;;;;;;;5.33;3.90;;;;;;;17.20;77.28;99327.09;1980396;87;21162;-76
2021/08/07 04:47:05;;;;;;;3.75;3.45;;;;;;;17.46;76.79;99323.20;1978065;88;21211;-72
2021/08/07 04:50:09;;;;;;;5.20;3.80;;;;;;;17.76;76.44;99324.97;1961136;88;21146;-83
2021/08/07 04:53:10;;;;;;;4.30;3.65;;;;;;;18.16;76.12;99330.48;1950769;88;21173;-71
2021/08/07 04:56:13;;;;;;;5.50;3.83;;;;;;;18.57;75.50;99326.76;1960548;88;21158;-75
2021/08/07 04:59:15;;;;;;;3.98;3.67;;;;;;;19.05;75.33;99327.42;1954192;86;21156;-77
2021/08/07 05:02:17;;;;;;;6.65;3.25;;;;;;;19.40;74.65;99327.24;1955527;88;21176;-72
2021/08/07 05:05:19;;;;;;;4.58;3.00;;;;;;;19.70;73.86;99326.92;1985230;87;21558;-74
2021/08/07 05:08:22;;;;;;;6.58;3.08;;;;;;;20.09;73.61;99324.27;1984614;87;21601;-72
2021/08/07 05:11:24;;;;;;;4.87;2.65;;;;;;;20.44;72.72;99327.17;1972655;88;21616;-77
2021/08/07 05:14:26;;;;;;;3.15;2.95;;;;;;;20.79;72.15;99334.06;1973183;88;22309;-72
2021/08/07 05:17:28;;;;;;;5.53;2.77;;;;;;;21.07;71.29;99331.66;1975132;87;21138;-73
2021/08/07 05:20:29;;;;;;;4.65;3.85;;;;;;;21.38;71.12;99339.53;1982645;88;21052;-73
2021/08/07 05:23:31;;;;;;;5.45;3.40;;;;;;;21.81;70.10;99328.25;1965487;88;21337;-72
2021/08/07 05:26:33;;;;;;;4.25;2.90;;;;;;;22.02;69.07;99341.38;1924875;89;21129;-72
2021/08/07 05:29:34;;;;;;;3.00;2.77;;;;;;;22.34;68.89;99345.34;1948090;88;21117;-70
2021/08/07 05:32:36;;;;;;;3.70;3.27;;;;;;;22.70;67.90;99353.62;1962949;88;21147;-71
2021/08/07 05:35:38;;;;;;;3.90;2.75;;;;;;;23.06;67.43;99353.76;1946417;86;21144;-74
2021/08/07 05:38:40;;;;;;;4.92;2.65;;;;;;;23.40;66.28;99345.14;1951804;88;21148;-72
2021/08/07 05:41:42;;;;;;;7.20;2.42;;;;;;;23.76;65.89;99347.31;1976727;88;21079;-72
2021/08/07 05:44:43;;;;;;;5.00;2.67;;;;;;;24.14;65.20;99349.16;1973115;88;21123;-72
2021/08/07 05:47:45;;;;;;;4.37;2.30;;;;;;;24.50;64.63;99351.25;1967240;88;21150;-74
2021/08/07 05:50:46;;;;;;;5.30;2.75;;;;;;;24.87;63.38;99350.00;1953857;86;21110;-74
2021/08/07 05:53:48;;;;;;;4.17;2.30;;;;;;;25.10;63.00;99349.05;1938474;88;21112;-75
2021/08/07 05:56:50;;;;;;;4.78;2.30;;;;;;;25.28;62.10;99352.47;1977151;88;21157;-79
2021/08/07 05:59:51;;;;;;;3.62;2.47;;;;;;;25.28;60.71;99356.55;1980073;87;21208;-75
2021/08/07 06:02:53;;;;;;;2.75;2.55;;;;;;;25.43;60.87;99355.64;1950899;88;21195;-72
2021/08/07 06:05:56;;;;;;;4.12;2.08;;;;;;;25.56;59.62;99359.05;1944477;88;21628;-70
2021/08/07 06:08:57;;;;;;;6.12;2.50;;;;;;;25.66;59.33;99358.17;1978446;88;21123;-73
2021/08/07 06:12:00;;;;;;;4.85;2.30;;;;;;;25.70;59.27;99361.92;1951187;87;21089;-74
2021/08/07 06:15:04;;;;;;;2.30;2.10;;;;;;;25.78;58.62;99365.39;1957895;88;21092;-71
2021/08/07 06:18:05;;;;;;;2.00;1.90;;;;;;;25.87;57.69;99363.70;1946548;88;21764;-73
2021/08/07 06:21:08;;;;;;;3.17;2.02;;;;;;;25.93;57.79;99361.22;1930561;90;21439;-73
2021/08/07 06:24:10;;;;;;;4.35;2.15;;;;;;;25.92;56.29;99360.94;1940745;89;21168;-72
2021/08/07 06:27:12;;;;;;;2.45;2.12;;;;;;;25.76;56.80;99353.98;1985615;86;21123;-73
2021/08/07 06:30:15;;;;;;;2.22;2.10;;;;;;;25.97;56.56;99360.09;1990145;86;21165;-71
2021/08/07 06:33:16;;;;;;;2.52;2.17;;;;;;;26.24;56.52;99364.95;2008257;86;21081;-73
2021/08/07 06:36:20;;;;;;;3.85;2.15;;;;;;;26.32;55.71;99364.33;2009425;86;21082;-72
2021/08/07 06:39:21;;;;;;;3.33;2.17;;;;;;;26.40;54.74;99365.61;1997059;86;21085;-72
2021/08/07 06:42:23;;;;;;;2.42;2.00;;;;;;;26.39;55.02;99363.44;2005994;85;21061;-72
2021/08/07 06:45:26;;;;;;;4.55;2.10;;;;;;;26.33;54.42;99368.68;2003438;85;21093;-72
2021/08/07 06:48:29;;;;;;;4.78;2.00;;;;;;;26.44;54.96;99375.34;2025518;85;21093;-71
2021/08/07 06:51:31;;;;;;;4.17;1.85;;;;;;;26.73;54.63;99368.52;2006777;85;21129;-71
2021/08/07 06:54:34;;;;;;;3.77;2.02;;;;;;;26.74;53.48;99370.92;1994941;86;21089;-70
2021/08/07 06:57:41;;;;;;;4.58;1.92;;;;;;;26.91;53.52;99372.35;2020324;85;21711;-73
2021/08/07 07:00:43;;;;;;;3.70;2.02;;;;;;;27.07;53.25;99380.57;2000805;85;21741;-73
2021/08/07 07:03:46;;;;;;;5.33;1.65;;;;;;;27.07;52.87;99375.13;1975152;87;21141;-74
2021/08/07 07:06:47;;;;;;;4.97;1.92;;;;;;;27.27;53.10;99374.05;1981120;86;21173;-74
2021/08/07 07:09:49;;;;;;;4.40;2.30;;;;;;;27.49;52.50;99377.53;1939561;89;21112;-74
2021/08/07 07:12:53;;;;;;;4.17;1.55;;;;;;;27.73;51.46;99380.12;1945861;89;21190;-73
2021/08/07 07:15:55;;;;;;;3.90;1.50;;;;;;;27.41;50.35;99383.09;1962637;88;21086;-75
2021/08/07 07:18:59;;;;;;;3.52;1.80;;;;;;;27.21;50.22;99388.29;1967740;88;22435;-75
2021/08/07 07:22:01;;;;;;;2.45;1.70;;;;;;;27.08;50.21;99388.98;1968831;88;21112;-72
2021/08/07 07:25:08;;;;;;;1.85;1.60;;;;;;;27.12;50.01;99388.67;1959680;86;21622;-72
2021/08/07 07:28:09;;;;;;;2.77;1.65;;;;;;;27.14;50.11;99382.92;1957790;87;21663;-72
2021/08/07 07:31:12;;;;;;;3.17;1.85;;;;;;;27.09;49.54;99385.70;1962366;86;21214;-72
2021/08/07 07:34:13;;;;;;;3.60;1.47;;;;;;;27.19;49.19;99388.33;1978720;87;21079;-73
2021/08/07 07:37:15;;;;;;;2.77;1.80;;;;;;;27.25;48.97;99385.22;1959348;88;21119;-72
2021/08/07 07:40:17;;;;;;;2.17;1.70;;;;;;;27.15;48.18;99393.53;1978810;88;22263;-71
2021/08/07 07:43:21;;;;;;;3.08;1.70;;;;;;;27.01;48.78;99389.92;1985712;88;21107;-70
2021/08/07 07:46:23;;;;;;;2.25;1.67;;;;;;;27.11;48.26;99392.48;1953615;88;21149;-69
2021/08/07 07:49:26;;;;;;;1.70;1.60;;;;;;;27.15;49.09;99384.00;1953044;88;22270;-71
2021/08/07 07:52:28;;;;;;;3.37;1.70;;;;;;;27.46;49.05;99387.66;1948973;88;21117;-71
2021/08/07 07:55:30;;;;;;;3.17;1.70;;;;;;;27.72;48.02;99384.77;1986187;88;21127;-73
2021/08/07 07:58:33;;;;;;;2.83;1.77;;;;;;;27.79;47.85;99393.97;1968209;88;21137;-72
2021/08/07 08:01:35;;;;;;;3.50;1.90;;;;;;;27.94;47.73;99395.06;1968049;88;22306;-72
2021/08/07 08:04:37;;;;;;;6.72;1.85;;;;;;;27.92;47.06;99391.81;1964829;86;21658;-72
2021/08/07 08:07:42;;;;;;;3.85;2.10;;;;;;;28.05;47.49;99404.44;1954490;86;21085;-72
2021/08/07 08:10:44;;;;;;;2.00;1.60;;;;;;;28.21;47.53;99398.13;1950146;88;21107;-72
2021/08/07 08:13:47;;;;;;;4.58;1.65;;;;;;;28.52;47.54;99397.02;1982775;86;21771;-74
2021/08/07 08:16:49;;;;;;;4.78;2.55;;;;;;;28.62;46.14;99398.19;1953813;88;21057;-74
2021/08/07 08:19:51;;;;;;;5.28;2.15;;;;;;;28.64;46.16;99403.36;1953307;88;21182;-73
2021/08/07 08:22:52;;;;;;;2.90;1.50;;;;;;;28.55;45.86;99397.23;1974353;88;21074;-74
2021/08/07 08:25:54;;;;;;;6.22;2.00;;;;;;;28.63;46.13;99401.16;1967302;86;21248;-72
2021/08/07 08:28:55;;;;;;;3.83;2.22;;;;;;;28.96;45.93;99395.02;1961086;87;21078;-71
2021/08/07 08:31:57;;;;;;;2.12;1.37;;;;;;;29.02;45.78;99395.14;1980744;88;21205;-71
2021/08/07 08:34:59;;;;;;;5.03;1.40;;;;;;;29.14;44.95;99393.83;1990380;87;21054;-71
2021/08/07 08:38:00;;;;;;;2.87;2.10;;;;;;;29.10;45.04;99396.38;1975821;87;21080;-70
2021/08/07 08:41:02;;;;;;;4.15;2.08;;;;;;;29.02;44.53;99399.23;1991696;86;21614;-71
2021/08/07 08:44:05;;;;;;;1.70;1.50;;;;;;;28.96;45.24;99400.47;1994354;86;21129;-71
2021/08/07 08:47:08;;;;;;;2.22;1.70;;;;;;;28.70;44.34;99402.13;1998090;85;22231;-70
2021/08/07 08:50:12;;;;;;;2.50;1.52;;;;;;;28.53;44.50;99403.55;1996535;85;21400;-80
2021/08/07 08:53:14;;;;;;;1.98;1.77;;;;;;;28.65;44.55;99411.22;1957886;88;21205;-71
2021/08/07 08:56:16;;;;;;;1.62;1.52;;;;;;;28.79;44.34;99416.67;1954134;87;21146;-72
2021/08/07 08:59:22;;;;;;;2.58;1.52;;;;;;;28.97;43.57;99415.73;1981773;87;21198;-76
2021/08/07 09:02:24;;;;;;;2.08;1.70;;;;;;;29.00;44.15;99415.14;2019706;85;21105;-75
2021/08/07 09:05:25;;;;;;;2.83;1.50;;;;;;;28.83;43.36;99408.95;2013634;84;21069;-74
2021/08/07 09:08:27;;;;;;;2.52;1.40;;;;;;;28.82;44.18;99411.97;2013239;86;21176;-78
2021/08/07 09:11:29;;;;;;;2.67;1.40;;;;;;;29.04;43.41;99408.53;2018640;85;21089;-75
2021/08/07 09:14:45;;;;;;;1.72;1.40;;;;;;;29.25;43.99;99408.88;2011509;84;21221;-74
2021/08/07 09:17:47;;;;;;;2.77;1.45;;;;;;;29.55;43.57;99401.91;2012984;86;21124;-75
2021/08/07 09:20:53;;;;;;;3.17;1.52;;;;;;;28.92;42.93;99378.17;2017473;85;21128;-71
2021/08/07 09:24:08;;;;;;;2.98;1.50;;;;;;;28.86;43.47;99396.58;2006855;85;21406;-71
2021/08/07 09:27:12;;;;;;;4.90;1.47;;;;;;;28.86;43.47;99396.58;2017322;86;21125;-69
2021/08/07 09:30:23;;;;;;;2.55;1.35;;;;;;;28.62;43.30;99397.39;1977520;88;21151;-72
2021/08/07 09:33:26;;;;;;;3.52;2.00;;;;;;;28.24;42.28;99402.45;1974927;87;21124;-72
2021/08/07 09:36:50;;;;;;;3.50;1.72;;;;;;;28.23;43.17;99398.65;2016953;84;21138;-71
2021/08/07 09:39:52;;;;;;;4.28;1.90;;;;;;;28.36;42.66;99401.95;2011973;84;21391;-72
2021/08/07 09:42:56;;;;;;;4.25;1.75;;;;;;;28.45;43.09;99397.99;2019849;86;21149;-71
2021/08/07 09:46:11;;;;;;;8.58;2.72;;;;;;;28.07;42.44;99403.03;2015862;86;21066;-69
2021/08/07 09:49:15;;;;;;;2.62;1.57;;;;;;;28.08;42.94;99393.73;2016259;85;21070;-72
2021/08/07 09:52:17;;;;;;;15.05;5.35;;;;;;;27.81;42.77;99400.47;2017651;86;21742;-76
2021/08/07 09:55:19;;;;;;;3.80;1.90;;;;;;;27.68;44.02;99394.66;2017194;85;21535;-72
2021/08/07 09:58:23;;;;;;;3.55;2.10;;;;;;;28.03;43.74;99394.38;2014147;86;21072;-70
2021/08/07 10:01:29;;;;;;;3.08;1.70;;;;;;;28.42;43.67;99386.30;2022168;85;21211;-71
2021/08/07 10:04:39;;;;;;;1.65;1.55;;;;;;;28.69;43.00;99384.13;2012394;85;21133;-69
2021/08/07 10:08:02;;;;;;;3.12;2.00;;;;;;;28.94;43.49;99395.06;2003772;85;21160;-77
2021/08/07 10:11:13;;;;;;;1.95;1.60;;;;;;;29.28;42.45;99395.97;2018961;86;21168;-70
2021/08/07 10:14:17;;;;;;;5.65;1.72;;;;;;;29.42;42.38;99390.45;2021814;85;21458;-76
2021/08/07 10:17:24;;;;;;;2.10;1.62;;;;;;;29.65;40.70;99395.39;2027660;85;21152;-72
2021/08/07 10:20:28;;;;;;;2.87;2.05;;;;;;;29.50;40.84;99382.89;2013810;84;21074;-78
2021/08/07 10:23:32;;;;;;;3.92;2.00;;;;;;;29.50;40.84;99382.89;2013173;85;21173;-73
2021/08/07 10:26:34;;;;;;;2.77;1.80;;;;;;;29.56;40.74;99393.14;2011133;86;21102;-73
2021/08/07 10:29:40;;;;;;;2.12;1.72;;;;;;;29.55;40.86;99396.44;2013604;86;21161;-74
2021/08/07 10:32:44;;;;;;;2.20;1.55;;;;;;;29.49;40.74;99396.31;1986071;85;21026;-71
2021/08/07 10:35:47;;;;;;;2.15;1.90;;;;;;;29.59;40.26;99406.18;2002958;86;21106;-72
2021/08/07 10:38:51;;;;;;;2.00;1.85;;;;;;;29.49;39.92;99392.21;2012767;84;21708;-72
2021/08/07 10:41:58;;;;;;;2.92;1.95;;;;;;;28.82;40.12;99390.94;2018459;85;21129;-70
2021/08/07 10:45:03;;;;;;;3.42;1.95;;;;;;;28.82;40.12;99390.94;2005799;85;21106;-74
2021/08/07 10:48:05;;;;;;;4.85;2.08;;;;;;;28.86;41.02;99385.66;2021063;85;21144;-69
2021/08/07 10:51:29;;;;;;;1.90;1.80;;;;;;;28.86;41.02;99385.66;2013020;84;21109;-71
2021/08/07 10:54:35;;;;;;;2.35;1.87;;;;;;;28.73;40.17;99375.03;2012896;85;21064;-69
2021/08/07 10:57:44;;;;;;;2.70;1.95;;;;;;;28.98;40.35;99398.25;1997535;86;21090;-69
2021/08/07 11:00:45;;;;;;;6.97;2.60;;;;;;;29.13;40.61;99388.13;2016967;84;21136;-72
2021/08/07 11:04:06;;;;;;;3.62;2.20;;;;;;;29.25;39.91;99386.46;2006036;85;22253;-73
2021/08/07 11:07:13;;;;;;;2.22;2.02;;;;;;;29.38;39.72;99382.64;2015627;85;21117;-71
2021/08/07 11:10:17;;;;;;;2.42;1.90;;;;;;;29.54;39.79;99372.97;2019677;84;22376;-72
2021/08/07 11:13:27;;;;;;;2.40;2.20;;;;;;;29.60;38.96;99358.05;2024677;85;21089;-69
2021/08/07 11:16:28;;;;;;;3.15;2.00;;;;;;;29.39;39.48;99341.90;2017415;86;21112;-78
2021/08/07 11:20:13;;;;;;;5.03;1.72;;;;;;;29.53;39.37;99363.13;2015354;85;21140;-78
2021/08/07 11:23:16;;;;;;;5.37;1.77;;;;;;;29.33;38.67;99352.14;2016086;85;21104;-72
2021/08/07 11:26:17;;;;;;;3.50;1.57;;;;;;;29.20;38.43;99351.63;2018913;85;22599;-79
2021/08/07 11:29:19;;;;;;;8.03;1.70;;;;;;;29.09;38.95;99352.98;2006751;85;21074;-69
2021/08/07 11:32:20;;;;;;;3.60;1.77;;;;;;;29.25;38.39;99346.05;2013927;84;21121;-70
2021/08/07 11:35:38;;;;;;;3.90;1.70;;;;;;;29.25;38.39;99341.95;2012257;84;21618;-79
2021/08/07 11:39:01;;;;;;;2.05;1.85;;;;;;;29.27;38.18;99339.16;2016314;85;21129;-71
2021/08/07 11:42:08;;;;;;;1.60;1.50;;;;;;;29.22;38.27;99338.48;2014494;85;21088;-73
2021/08/07 11:45:10;;;;;;;2.10;1.85;;;;;;;29.33;38.89;99339.84;1986995;85;21128;-74
2021/08/07 11:48:13;;;;;;;2.75;1.80;;;;;;;29.35;38.57;99353.21;1997909;85;21161;-69
2021/08/07 11:51:24;;;;;;;2.62;1.72;;;;;;;29.22;38.70;99348.04;2004471;86;21398;-72
2021/08/07 11:54:28;;;;;;;2.35;1.95;;;;;;;29.15;37.75;99351.20;2009686;86;21631;-67
2021/08/07 11:57:30;;;;;;;1.95;1.45;;;;;;;28.98;38.39;99345.01;1980190;86;21092;-69
2021/08/07 12:00:33;;;;;;;2.08;1.90;;;;;;;28.96;38.10;99349.95;1983046;87;22295;-69
2021/08/07 12:03:51;;;;;;;5.17;1.85;;;;;;;28.28;38.71;99351.63;1974084;88;21457;-70
2021/08/07 12:06:53;;;;;;;2.02;1.75;;;;;;;28.18;38.90;99349.65;1977775;87;21118;-71
2021/08/07 12:10:09;;;;;;;2.27;1.87;;;;;;;28.47;38.98;99340.65;1998995;85;21099;-70
2021/08/07 12:13:10;;;;;;;3.47;1.77;;;;;;;28.68;38.90;99337.48;1999470;86;21064;-71
2021/08/07 12:16:16;;;;;;;2.92;2.02;;;;;;;28.89;39.07;99329.64;2016367;86;21031;-70
2021/08/07 12:19:21;;;;;;;2.62;1.90;;;;;;;29.02;39.29;99328.24;1994255;86;21087;-70
2021/08/07 12:22:22;;;;;;;3.47;1.90;;;;;;;29.23;38.98;99336.02;1997269;86;21168;-74
2021/08/07 12:25:24;;;;;;;3.60;1.95;;;;;;;29.03;38.68;99340.83;1999880;85;21085;-71
2021/08/07 12:28:29;;;;;;;2.98;1.82;;;;;;;28.73;39.09;99336.82;2007162;86;21173;-75
2021/08/07 12:31:43;;;;;;;2.00;1.67;;;;;;;28.68;39.06;99334.76;2000206;86;21215;-68
2021/08/07 12:34:46;;;;;;;2.33;1.75;;;;;;;28.79;38.97;99340.25;1991725;86;21097;-70
2021/08/07 12:37:47;;;;;;;1.60;1.50;;;;;;;28.89;38.26;99332.38;1959756;88;21698;-74
2021/08/07 12:40:54;;;;;;;1.67;1.50;;;;;;;28.76;38.24;99341.66;1974556;88;21383;-72
2021/08/07 12:43:55;;;;;;;1.57;1.47;;;;;;;28.77;39.11;99333.72;1965481;87;21124;-70
2021/08/07 12:46:57;;;;;;;1.60;1.50;;;;;;;28.78;37.96;99324.43;1970884;86;21135;-70
2021/08/07 12:50:12;;;;;;;1.72;1.62;;;;;;;28.75;38.48;99325.61;1973416;87;21143;-70
2021/08/07 12:53:14;;;;;;;2.00;1.70;;;;;;;28.49;38.33;99330.78;1963951;87;21576;-72
2021/08/07 12:56:16;;;;;;;1.82;1.50;;;;;;;28.39;39.25;99336.67;1977564;88;21176;-69
2021/08/07 12:59:18;;;;;;;1.85;1.50;;;;;;;28.55;39.03;99333.65;1960399;88;21202;-68
2021/08/07 13:02:25;;;;;;;2.37;1.65;;;;;;;28.41;38.98;99326.84;1973935;88;21107;-69
2021/08/07 13:05:35;;;;;;;1.77;1.45;;;;;;;28.41;39.28;99328.73;1941025;87;21729;-75
2021/08/07 13:08:36;;;;;;;2.67;1.50;;;;;;;28.30;39.61;99322.70;1954801;88;21087;-68
2021/08/07 13:11:37;;;;;;;1.77;1.52;;;;;;;28.15;39.51;99326.52;2010490;86;21100;-72
2021/08/07 13:14:56;;;;;;;1.25;1.15;;;;;;;28.18;39.72;99322.37;2010803;86;21122;-73
2021/08/07 13:17:58;;;;;;;1.65;1.52;;;;;;;28.22;39.33;99322.04;1983537;86;22515;-72
2021/08/07 13:21:00;;;;;;;2.20;1.70;;;;;;;28.28;38.50;99320.82;1949128;87;21173;-71
2021/08/07 13:24:02;;;;;;;1.92;1.30;;;;;;;28.14;39.25;99320.26;1953269;87;21672;-73
2021/08/07 13:27:13;;;;;;;1.50;1.40;;;;;;;28.12;38.97;99324.39;1986056;88;21575;-72
2021/08/07 13:33:40;;;;;;;2.40;1.32;;;;;;;28.17;39.52;99321.58;2012272;85;21090;-70
2021/08/07 13:36:43;;;;;;;1.33;1.23;;;;;;;28.05;39.49;99316.63;2060834;83;21082;-75
2021/08/07 13:39:45;;;;;;;1.92;1.40;;;;;;;27.87;39.49;99318.86;2062048;83;21680;-69
2021/08/07 13:42:47;;;;;;;1.20;1.10;;;;;;;27.52;39.50;99316.20;2056262;83;21144;-71
2021/08/07 13:45:48;;;;;;;1.37;1.27;;;;;;;27.22;39.70;99325.91;2060053;83;21100;-74
2021/08/07 13:48:50;;;;;;;2.02;1.30;;;;;;;26.79;39.75;99319.72;2050483;84;22366;-73
2021/08/07 13:51:51;;;;;;;3.35;1.20;;;;;;;26.56;39.98;99315.39;2068457;83;21137;-71
2021/08/07 13:54:53;;;;;;;1.42;1.22;;;;;;;26.35;40.72;99314.80;2054048;83;21124;-75
2021/08/07 13:57:54;;;;;;;2.12;0.93;;;;;;;26.51;41.06;99318.73;2048113;83;21160;-78
2021/08/07 14:00:56;;;;;;;1.62;1.37;;;;;;;26.61;40.72;99321.33;2048308;83;21045;-74
2021/08/07 14:03:57;;;;;;;3.98;1.20;;;;;;;26.48;40.37;99317.92;2059762;83;21182;-73
2021/08/07 14:06:59;;;;;;;4.60;1.42;;;;;;;26.49;40.79;99313.53;2055189;82;21160;-75
2021/08/07 14:10:00;;;;;;;2.17;1.30;;;;;;;26.67;41.14;99313.91;2074884;83;21717;-74
2021/08/07 14:13:02;;;;;;;2.37;1.30;;;;;;;26.50;40.70;99323.89;2084325;83;21055;-72
2021/08/07 14:16:04;;;;;;;1.72;1.05;;;;;;;26.20;41.30;99332.66;2082715;82;21069;-79
2021/08/07 14:19:05;;;;;;;5.15;1.30;;;;;;;26.11;41.23;99321.61;2081682;82;21096;-73
2021/08/07 14:22:07;;;;;;;2.33;1.40;;;;;;;26.19;41.82;99328.89;2065458;83;21714;-74
2021/08/07 14:25:09;;;;;;;1.00;1.00;;;;;;;26.23;41.98;99321.20;2073944;82;21075;-74
2021/08/07 14:28:11;;;;;;;1.20;1.10;;;;;;;26.22;41.54;99328.30;2051735;83;21110;-74
2021/08/07 14:31:13;;;;;;;2.77;1.25;;;;;;;26.26;41.14;99330.14;2079182;82;21709;-74